createdAt,value
2022-12-18T00:01:15.089Z,-1.41
2022-12-18T00:03:42.058Z,-1.41
2022-12-18T00:06:09.539Z,-1.44
2022-12-18T00:08:36.592Z,-1.43
2022-12-18T00:11:11.491Z,-1.46
2022-12-18T00:13:38.621Z,-1.42
2022-12-18T00:16:07.912Z,-1.49
2022-12-18T00:18:34.839Z,-1.49
2022-12-18T00:21:04.072Z,-1.49
2022-12-18T00:23:31.669Z,-1.52
2022-12-18T00:26:07.662Z,-1.62
2022-12-18T00:28:34.935Z,-1.65
2022-12-18T00:31:15.593Z,-1.71
2022-12-18T00:33:42.814Z,-1.74
2022-12-18T00:36:21.150Z,-1.75
2022-12-18T00:38:48.548Z,-1.80
2022-12-18T00:41:40.162Z,-1.88
2022-12-18T00:44:08.854Z,-1.90
2022-12-18T00:46:35.481Z,-1.91
2022-12-18T00:49:02.166Z,-1.95
2022-12-18T00:51:28.850Z,-2.01
2022-12-18T00:53:55.563Z,-2.02
2022-12-18T00:56:22.260Z,-2.01
2022-12-18T00:58:49.220Z,-2.07
2022-12-18T01:01:16.285Z,-2.13
2022-12-18T01:03:43.298Z,-2.12
2022-12-18T01:06:12.759Z,-2.14
2022-12-18T01:08:40.314Z,-2.11
2022-12-18T01:11:12.851Z,-2.09
2022-12-18T01:13:40.885Z,-2.07
2022-12-18T01:16:08.252Z,-2.00
2022-12-18T01:18:34.878Z,-1.92
2022-12-18T01:21:01.614Z,-1.87
2022-12-18T01:23:28.225Z,-1.89
2022-12-18T01:25:54.870Z,-1.89
2022-12-18T01:28:21.536Z,-1.92
2022-12-18T01:30:48.150Z,-1.93
2022-12-18T01:33:14.799Z,-1.94
2022-12-18T01:35:43.281Z,-1.94
2022-12-18T01:38:10.062Z,-1.95
2022-12-18T01:40:37.021Z,-1.96
2022-12-18T01:43:03.756Z,-1.99
2022-12-18T01:45:32.042Z,-1.99
2022-12-18T01:48:09.752Z,-2.06
2022-12-18T01:50:36.303Z,-2.07
2022-12-18T01:53:20.100Z,-2.17
2022-12-18T01:55:51.462Z,-2.21
2022-12-18T01:58:20.133Z,-2.21
2022-12-18T02:00:47.339Z,-2.22
2022-12-18T02:03:14.502Z,-2.30
2022-12-18T02:06:03.110Z,-2.25
2022-12-18T02:08:43.167Z,-2.27
2022-12-18T02:11:34.195Z,-2.28
2022-12-18T02:14:29.308Z,-2.23
2022-12-18T02:17:18.169Z,-2.24
2022-12-18T02:19:56.711Z,-2.28
2022-12-18T02:22:47.993Z,-2.26
2022-12-18T02:25:22.588Z,-2.29
2022-12-18T02:27:51.791Z,-2.27
2022-12-18T02:30:20.088Z,-2.34
2022-12-18T02:32:52.551Z,-2.29
2022-12-18T02:35:26.802Z,-2.39
2022-12-18T02:37:55.029Z,-2.35
2022-12-18T02:40:24.625Z,-2.32
2022-12-18T02:42:51.366Z,-2.27
2022-12-18T02:45:18.132Z,-2.23
2022-12-18T02:47:48.475Z,-2.17
2022-12-18T02:50:37.048Z,-2.20
2022-12-18T02:53:23.250Z,-2.09
2022-12-18T02:55:58.673Z,-2.06
2022-12-18T02:58:43.300Z,-2.04
2022-12-18T03:01:21.182Z,-1.97
2022-12-18T03:03:55.863Z,-1.91
2022-12-18T03:06:26.399Z,-1.86
2022-12-18T03:08:59.377Z,-1.84
2022-12-18T03:11:47.333Z,-1.79
2022-12-18T03:14:16.460Z,-1.76
2022-12-18T03:16:45.044Z,-1.74
2022-12-18T03:19:18.123Z,-1.76
2022-12-18T03:21:48.805Z,-1.72
2022-12-18T03:24:18.081Z,-1.67
2022-12-18T03:26:49.015Z,-1.65
2022-12-18T03:29:43.593Z,-1.67
2022-12-18T03:32:19.815Z,-1.64
2022-12-18T03:34:50.516Z,-1.65
2022-12-18T03:37:18.404Z,-1.62
2022-12-18T03:39:45.026Z,-1.59
2022-12-18T03:42:34.124Z,-1.60
2022-12-18T03:45:13.621Z,-1.59
2022-12-18T03:47:59.773Z,-1.58
2022-12-18T03:50:55.706Z,-1.60
2022-12-18T03:53:52.488Z,-1.66
2022-12-18T03:56:20.881Z,-1.68
2022-12-18T03:58:49.771Z,-1.66
2022-12-18T04:01:19.093Z,-1.69
2022-12-18T04:03:49.238Z,-1.64
2022-12-18T04:06:17.903Z,-1.59
2022-12-18T04:08:45.602Z,-1.56
2022-12-18T04:11:13.083Z,-1.49
2022-12-18T04:13:40.742Z,-1.46
2022-12-18T04:16:08.060Z,-1.45
2022-12-18T04:18:35.064Z,-1.46
2022-12-18T04:21:02.249Z,-1.44
2022-12-18T04:23:29.330Z,-1.41
2022-12-18T04:25:56.097Z,-1.39
2022-12-18T04:28:22.869Z,-1.37
2022-12-18T04:30:49.835Z,-1.35
2022-12-18T04:33:19.325Z,-1.34
2022-12-18T04:35:45.952Z,-1.38
2022-12-18T04:38:12.599Z,-1.39
2022-12-18T04:40:39.744Z,-1.33
2022-12-18T04:43:08.146Z,-1.34
2022-12-18T04:45:34.816Z,-1.33
2022-12-18T04:48:03.057Z,-1.34
2022-12-18T04:50:30.145Z,-1.31
2022-12-18T04:52:56.780Z,-1.33
2022-12-18T04:55:26.145Z,-1.33
2022-12-18T04:57:52.796Z,-1.30
2022-12-18T05:00:19.561Z,-1.34
2022-12-18T05:02:46.515Z,-1.36
2022-12-18T05:05:13.575Z,-1.38
2022-12-18T05:07:40.264Z,-1.40
2022-12-18T05:10:09.278Z,-1.36
2022-12-18T05:12:57.174Z,-1.45
2022-12-18T05:15:23.986Z,-1.44
2022-12-18T05:17:50.637Z,-1.42
2022-12-18T05:20:17.449Z,-1.39
2022-12-18T05:22:44.057Z,-1.41
2022-12-18T05:25:10.866Z,-1.39
2022-12-18T05:27:37.442Z,-1.36
2022-12-18T05:30:04.569Z,-1.37
2022-12-18T05:32:31.188Z,-1.32
2022-12-18T05:34:58.294Z,-1.30
2022-12-18T05:37:24.889Z,-1.20
2022-12-18T05:39:51.522Z,-1.24
2022-12-18T05:42:18.235Z,-1.19
2022-12-18T05:44:45.381Z,-1.17
2022-12-18T05:47:11.995Z,-1.17
2022-12-18T05:49:38.603Z,-1.18
2022-12-18T05:52:05.348Z,-1.18
2022-12-18T05:54:32.121Z,-1.16
2022-12-18T05:56:59.097Z,-1.13
2022-12-18T05:59:25.862Z,-1.14
2022-12-18T06:01:52.705Z,-1.11
2022-12-18T06:04:19.399Z,-1.13
2022-12-18T06:06:46.018Z,-1.10
2022-12-18T06:09:12.947Z,-1.08
2022-12-18T06:11:40.099Z,-1.06
2022-12-18T06:14:07.606Z,-1.02
2022-12-18T06:16:34.311Z,-1.02
2022-12-18T06:19:02.375Z,-0.96
2022-12-18T06:21:30.037Z,-0.94
2022-12-18T06:23:57.265Z,-0.89
2022-12-18T06:26:28.021Z,-0.86
2022-12-18T06:28:55.076Z,-0.87
2022-12-18T06:31:21.799Z,-0.85
2022-12-18T06:33:48.460Z,-0.88
2022-12-18T06:36:15.353Z,-0.83
2022-12-18T06:38:44.037Z,-0.78
2022-12-18T06:41:17.436Z,-0.78
2022-12-18T06:43:44.799Z,-0.77
2022-12-18T06:46:12.409Z,-0.75
2022-12-18T06:48:39.535Z,-0.72
2022-12-18T06:51:06.230Z,-0.71
2022-12-18T06:53:33.672Z,-0.79
2022-12-18T06:56:09.524Z,-0.75
2022-12-18T06:58:37.218Z,-0.70
2022-12-18T07:01:06.094Z,-0.65
2022-12-18T07:03:33.277Z,-0.64
2022-12-18T07:05:59.882Z,-0.59
2022-12-18T07:08:26.940Z,-0.62
2022-12-18T07:10:56.470Z,-0.57
2022-12-18T07:13:23.804Z,-0.61
2022-12-18T07:15:50.762Z,-0.61
2022-12-18T07:18:17.375Z,-0.54
2022-12-18T07:20:44.020Z,-0.57
2022-12-18T07:23:10.626Z,-0.58
2022-12-18T07:25:37.991Z,-0.53
2022-12-18T07:28:05.069Z,-0.54
2022-12-18T07:30:31.770Z,-0.53
2022-12-18T07:32:58.402Z,-0.46
2022-12-18T07:35:25.560Z,-0.40
2022-12-18T07:37:52.448Z,-0.34
2022-12-18T07:40:19.196Z,-0.34
2022-12-18T07:42:45.954Z,-0.39
2022-12-18T07:45:12.638Z,-0.38
2022-12-18T07:47:39.302Z,-0.35
2022-12-18T07:50:06.784Z,-0.29
2022-12-18T07:52:33.473Z,-0.23
2022-12-18T07:55:00.721Z,-0.19
2022-12-18T07:57:49.563Z,-0.19
2022-12-18T08:00:14.789Z,-0.15
2022-12-18T08:02:41.538Z,-0.16
2022-12-18T08:05:09.417Z,-0.15
2022-12-18T08:07:36.047Z,-0.15
2022-12-18T08:10:02.781Z,-0.12
2022-12-18T08:12:30.818Z,-0.12
2022-12-18T08:14:57.448Z,-0.10
2022-12-18T08:17:24.321Z,-0.03
2022-12-18T08:19:50.922Z,0.01
2022-12-18T08:22:17.566Z,0.00
2022-12-18T08:24:44.244Z,-0.04
2022-12-18T08:27:29.025Z,-0.02
2022-12-18T08:29:57.117Z,-0.01
2022-12-18T08:32:24.417Z,0.06
2022-12-18T08:34:51.050Z,0.07
2022-12-18T08:37:17.671Z,0.08
2022-12-18T08:39:44.379Z,0.04
2022-12-18T08:42:29.645Z,0.03
2022-12-18T08:44:56.252Z,0.05
2022-12-18T08:47:22.862Z,0.03
2022-12-18T08:49:49.457Z,0.05
2022-12-18T08:52:16.096Z,0.06
2022-12-18T08:54:42.674Z,0.07
2022-12-18T08:57:09.426Z,0.08
2022-12-18T08:59:36.234Z,0.13
2022-12-18T09:02:03.226Z,0.17
2022-12-18T09:04:30.146Z,0.13
2022-12-18T09:06:56.829Z,0.14
2022-12-18T09:09:23.486Z,0.19
2022-12-18T09:11:50.078Z,0.22
2022-12-18T09:14:16.722Z,0.21
2022-12-18T09:16:43.841Z,0.24
2022-12-18T09:19:11.268Z,0.22
2022-12-18T09:21:38.012Z,0.24
2022-12-18T09:24:08.785Z,0.29
2022-12-18T09:26:35.832Z,0.32
2022-12-18T09:29:03.724Z,0.32
2022-12-18T09:31:30.336Z,0.31
2022-12-18T09:33:57.747Z,0.29
2022-12-18T09:36:24.384Z,0.33
2022-12-18T09:38:51.052Z,0.32
2022-12-18T09:41:47.088Z,0.32
2022-12-18T09:44:13.683Z,0.29
2022-12-18T09:46:47.119Z,0.31
2022-12-18T09:49:17.683Z,0.27
2022-12-18T09:51:52.467Z,0.34
2022-12-18T09:54:28.206Z,0.33
2022-12-18T09:56:55.666Z,0.35
2022-12-18T09:59:31.841Z,0.39
2022-12-18T10:01:58.680Z,0.42
2022-12-18T10:04:31.673Z,0.41
2022-12-18T10:07:08.938Z,0.46
2022-12-18T10:09:43.442Z,0.48
2022-12-18T10:12:48.383Z,0.53
2022-12-18T10:15:25.547Z,0.53
2022-12-18T10:18:27.950Z,0.58
2022-12-18T10:21:01.263Z,0.62
2022-12-18T10:23:41.416Z,0.63
2022-12-18T10:26:13.620Z,0.65
2022-12-18T10:28:43.377Z,0.66
2022-12-18T10:31:25.075Z,0.68
2022-12-18T10:33:54.780Z,0.73
2022-12-18T10:36:24.915Z,0.78
2022-12-18T10:38:52.178Z,0.81
2022-12-18T10:41:19.587Z,0.85
2022-12-18T10:43:48.557Z,0.89
2022-12-18T10:46:20.779Z,0.92
2022-12-18T10:48:47.434Z,0.90
2022-12-18T10:51:34.600Z,0.90
2022-12-18T10:54:19.289Z,0.92
2022-12-18T10:56:46.698Z,1.01
2022-12-18T10:59:16.215Z,0.91
2022-12-18T11:02:01.197Z,0.92
2022-12-18T11:04:30.970Z,0.86
2022-12-18T11:07:08.766Z,0.90
2022-12-18T11:09:37.560Z,0.96
2022-12-18T11:12:20.331Z,0.94
2022-12-18T11:14:49.978Z,0.94
2022-12-18T11:17:31.919Z,0.94
2022-12-18T11:20:19.935Z,0.98
2022-12-18T11:23:00.683Z,1.00
2022-12-18T11:25:33.152Z,1.03
2022-12-18T11:28:04.179Z,1.06
2022-12-18T11:30:37.792Z,1.04
2022-12-18T11:33:11.356Z,0.96
2022-12-18T11:35:47.155Z,1.06
2022-12-18T11:38:19.895Z,1.07
2022-12-18T11:40:53.070Z,1.01
2022-12-18T11:43:34.890Z,1.04
2022-12-18T11:46:19.564Z,1.02
2022-12-18T11:49:07.703Z,1.01
2022-12-18T11:51:50.730Z,1.05
2022-12-18T11:54:18.257Z,1.05
2022-12-18T11:56:56.515Z,1.12
2022-12-18T11:59:34.052Z,1.06
2022-12-18T12:02:01.020Z,1.10
2022-12-18T12:04:48.659Z,1.10
2022-12-18T12:08:14.012Z,1.04
2022-12-18T12:11:13.413Z,1.11
2022-12-18T12:14:14.273Z,1.13
2022-12-18T12:17:07.121Z,1.18
2022-12-18T12:19:54.763Z,1.24
2022-12-18T12:22:44.321Z,1.28
2022-12-18T12:25:38.048Z,1.28
2022-12-18T12:28:07.387Z,1.30
2022-12-18T12:30:58.585Z,1.33
2022-12-18T12:33:53.201Z,1.31
2022-12-18T12:36:29.077Z,1.29
2022-12-18T12:39:02.174Z,1.30
2022-12-18T12:41:52.989Z,1.36
2022-12-18T12:44:28.186Z,1.38
2022-12-18T12:46:59.987Z,1.38
2022-12-18T12:49:30.186Z,1.41
2022-12-18T12:52:13.506Z,1.37
2022-12-18T12:54:40.881Z,1.39
2022-12-18T12:57:17.591Z,1.44
2022-12-18T13:00:11.383Z,1.44
2022-12-18T13:03:05.857Z,1.47
2022-12-18T13:05:44.109Z,1.45
2022-12-18T13:08:22.674Z,1.44
2022-12-18T13:11:11.052Z,1.48
2022-12-18T13:13:54.421Z,1.49
2022-12-18T13:16:26.719Z,1.52
2022-12-18T13:18:59.697Z,1.49
2022-12-18T13:21:34.848Z,1.50
2022-12-18T13:24:25.976Z,1.52
2022-12-18T13:26:53.132Z,1.50
2022-12-18T13:29:52.863Z,1.53
2022-12-18T13:32:27.592Z,1.57
2022-12-18T13:35:19.176Z,1.60
2022-12-18T13:37:55.278Z,1.62
2022-12-18T13:40:39.892Z,1.64
2022-12-18T13:43:18.760Z,1.64
2022-12-18T13:45:50.968Z,1.69
2022-12-18T13:48:24.150Z,1.70
2022-12-18T13:50:59.784Z,1.74
2022-12-18T13:53:34.199Z,1.73
2022-12-18T13:56:01.447Z,1.75
2022-12-18T13:58:28.134Z,1.78
2022-12-18T14:00:54.812Z,1.81
2022-12-18T14:03:25.191Z,1.83
2022-12-18T14:06:02.273Z,1.91
2022-12-18T14:08:36.124Z,1.92
2022-12-18T14:11:05.325Z,1.94
2022-12-18T14:13:36.216Z,1.97
2022-12-18T14:16:05.377Z,2.01
2022-12-18T14:18:32.136Z,2.03
2022-12-18T14:21:00.671Z,2.01
2022-12-18T14:23:42.226Z,2.04
2022-12-18T14:26:30.484Z,2.09
2022-12-18T14:28:59.098Z,2.10
2022-12-18T14:31:28.092Z,2.03
2022-12-18T14:33:55.205Z,2.09
2022-12-18T14:36:24.546Z,2.07
2022-12-18T14:38:55.484Z,2.11
2022-12-18T14:41:23.532Z,2.11
2022-12-18T14:43:54.934Z,2.11
2022-12-18T14:46:33.872Z,2.15
2022-12-18T14:49:04.437Z,2.13
2022-12-18T14:51:33.862Z,2.21
2022-12-18T14:54:10.857Z,2.20
2022-12-18T14:56:43.694Z,2.27
2022-12-18T14:59:23.751Z,2.34
2022-12-18T15:02:00.129Z,2.36
2022-12-18T15:04:42.091Z,2.38
2022-12-18T15:07:25.066Z,2.39
2022-12-18T15:10:16.753Z,2.45
2022-12-18T15:12:49.380Z,2.45
2022-12-18T15:15:40.366Z,2.51
2022-12-18T15:18:11.454Z,2.47
2022-12-18T15:20:51.113Z,2.51
2022-12-18T15:23:23.150Z,2.58
2022-12-18T15:26:01.515Z,2.60
2022-12-18T15:28:37.686Z,2.58
2022-12-18T15:31:14.465Z,2.57
2022-12-18T15:33:45.105Z,2.63
2022-12-18T15:36:14.354Z,2.64
2022-12-18T15:38:41.696Z,2.66
2022-12-18T15:41:24.498Z,2.69
2022-12-18T15:43:53.306Z,2.72
2022-12-18T15:46:23.249Z,2.76
2022-12-18T15:48:55.433Z,2.80
2022-12-18T15:51:35.573Z,2.83
2022-12-18T15:54:04.869Z,2.86
2022-12-18T15:56:50.701Z,2.88
2022-12-18T15:59:20.508Z,2.91
2022-12-18T16:01:50.128Z,2.95
2022-12-18T16:04:21.747Z,3.01
2022-12-18T16:09:36.900Z,3.04
2022-12-18T16:12:04.074Z,3.05
2022-12-18T16:14:31.915Z,3.08
2022-12-18T16:17:01.099Z,3.10
2022-12-18T16:19:28.974Z,3.17
2022-12-18T16:21:57.926Z,3.18
2022-12-18T16:24:32.941Z,3.23
2022-12-18T16:27:01.455Z,3.24
2022-12-18T16:29:29.903Z,3.27
2022-12-18T16:31:58.998Z,3.31
2022-12-18T16:34:29.593Z,3.37
2022-12-18T16:37:05.615Z,3.39
2022-12-18T16:39:35.103Z,3.43
2022-12-18T16:42:05.297Z,3.49
2022-12-18T16:44:34.202Z,3.53
2022-12-18T16:47:03.256Z,3.55
2022-12-18T16:49:30.902Z,3.58
2022-12-18T16:51:57.927Z,3.62
2022-12-18T16:54:25.236Z,3.67
2022-12-18T16:56:52.324Z,3.69
2022-12-18T16:59:19.413Z,3.71
2022-12-18T17:01:48.068Z,3.75
2022-12-18T17:04:15.337Z,3.78
2022-12-18T17:06:44.498Z,3.82
2022-12-18T17:09:16.907Z,3.88
2022-12-18T17:11:44.291Z,3.91
2022-12-18T17:14:15.044Z,3.96
2022-12-18T17:16:41.829Z,4.01
2022-12-18T17:19:13.599Z,4.03
2022-12-18T17:21:45.412Z,4.10
2022-12-18T17:24:12.915Z,4.14
2022-12-18T17:26:40.110Z,4.18
2022-12-18T17:29:06.975Z,4.24
2022-12-18T17:31:34.782Z,4.26
2022-12-18T17:34:03.327Z,4.31
2022-12-18T17:36:33.801Z,4.32
2022-12-18T17:39:02.280Z,4.39
2022-12-18T17:41:30.813Z,4.41
2022-12-18T17:44:09.355Z,4.43
2022-12-18T17:46:36.057Z,4.45
2022-12-18T17:49:03.520Z,4.50
2022-12-18T17:51:31.062Z,4.55
2022-12-18T17:53:57.828Z,4.57
2022-12-18T17:56:25.242Z,4.60
2022-12-18T17:58:52.234Z,4.65
2022-12-18T18:01:21.706Z,4.69
2022-12-18T18:03:51.575Z,4.73
2022-12-18T18:06:20.889Z,4.76
2022-12-18T18:08:48.237Z,4.79
2022-12-18T18:11:36.735Z,4.86
2022-12-18T18:14:05.573Z,4.89
2022-12-18T18:16:34.313Z,4.93
2022-12-18T18:19:03.185Z,5.02
2022-12-18T18:21:30.529Z,5.04
2022-12-18T18:24:04.574Z,5.05
2022-12-18T18:26:32.726Z,5.09
2022-12-18T18:29:00.967Z,5.12
2022-12-18T18:31:30.982Z,5.17
2022-12-18T18:33:58.641Z,5.20
2022-12-18T18:36:25.538Z,5.23
2022-12-18T18:38:52.712Z,5.26
2022-12-18T18:41:20.383Z,5.26
2022-12-18T18:43:46.988Z,5.28
2022-12-18T18:46:15.833Z,5.31
2022-12-18T18:48:43.766Z,5.33
2022-12-18T18:51:20.662Z,5.37
2022-12-18T18:53:50.519Z,5.39
2022-12-18T18:56:50.151Z,5.42
2022-12-18T18:59:06.559Z,5.45
2022-12-18T19:01:33.820Z,5.51
2022-12-18T19:04:03.893Z,5.49
2022-12-18T19:06:31.275Z,5.52
2022-12-18T19:09:01.195Z,5.53
2022-12-18T19:11:46.817Z,5.55
2022-12-18T19:14:15.361Z,5.62
2022-12-18T19:16:43.737Z,5.65
2022-12-18T19:19:10.922Z,5.67
2022-12-18T19:21:38.431Z,5.69
2022-12-18T19:24:06.059Z,5.72
2022-12-18T19:26:32.738Z,5.74
2022-12-18T19:29:07.630Z,5.77
2022-12-18T19:31:36.898Z,5.81
2022-12-18T19:34:08.066Z,5.86
2022-12-18T19:36:37.382Z,5.89
2022-12-18T19:39:10.928Z,5.92
2022-12-18T19:41:37.933Z,5.92
2022-12-18T19:44:07.936Z,5.93
2022-12-18T19:46:36.076Z,5.97
2022-12-18T19:49:06.601Z,5.99
2022-12-18T19:51:33.507Z,6.04
2022-12-18T19:54:01.794Z,6.03
2022-12-18T19:56:33.116Z,6.05
2022-12-18T19:59:00.718Z,6.07
2022-12-18T20:01:28.891Z,6.09
2022-12-18T20:03:57.606Z,6.13
2022-12-18T20:06:35.777Z,6.13
2022-12-18T20:09:05.469Z,6.17
2022-12-18T20:11:41.511Z,6.14
2022-12-18T20:14:10.376Z,6.17
2022-12-18T20:16:37.102Z,6.19
2022-12-18T20:19:05.357Z,6.21
2022-12-18T20:21:31.989Z,6.22
2022-12-18T20:24:00.059Z,6.23
2022-12-18T20:26:27.167Z,6.27
2022-12-18T20:28:54.683Z,6.33
2022-12-18T20:31:22.927Z,6.35
2022-12-18T20:33:50.030Z,6.37
2022-12-18T20:36:25.810Z,6.42
2022-12-18T20:38:57.147Z,6.45
2022-12-18T20:41:26.357Z,6.47
2022-12-18T20:43:58.799Z,6.48
2022-12-18T20:46:25.695Z,6.52
2022-12-18T20:48:52.389Z,6.54
2022-12-18T20:51:20.987Z,6.55
2022-12-18T20:53:48.815Z,6.57
2022-12-18T20:56:22.001Z,6.64
2022-12-18T20:58:55.131Z,6.67
2022-12-18T21:01:23.436Z,6.69
2022-12-18T21:03:51.282Z,6.70
2022-12-18T21:06:20.030Z,6.72
2022-12-18T21:08:47.075Z,6.74
2022-12-18T21:11:38.489Z,6.76
2022-12-18T21:14:12.046Z,6.78
2022-12-18T21:16:40.162Z,6.82
2022-12-18T21:19:08.619Z,6.82
2022-12-18T21:21:38.886Z,6.91
2022-12-18T21:24:07.182Z,6.93
2022-12-18T21:26:33.905Z,6.96
2022-12-18T21:29:03.360Z,6.99
2022-12-18T21:31:32.643Z,6.98
2022-12-18T21:34:01.979Z,7.01
2022-12-18T21:36:30.288Z,7.07
2022-12-18T21:38:58.494Z,7.14
2022-12-18T21:41:44.877Z,7.17
2022-12-18T21:44:13.711Z,7.19
2022-12-18T21:46:44.310Z,7.21
2022-12-18T21:49:14.571Z,7.25
2022-12-18T21:51:41.598Z,7.26
2022-12-18T21:54:08.218Z,7.30
2022-12-18T21:56:57.060Z,7.38
2022-12-18T21:59:29.159Z,7.41
2022-12-18T22:01:58.930Z,7.42
2022-12-18T22:04:26.080Z,7.45
2022-12-18T22:06:53.985Z,7.48
2022-12-18T22:09:22.423Z,7.51
2022-12-18T22:11:50.364Z,7.51
2022-12-18T22:14:20.312Z,7.54
2022-12-18T22:16:47.427Z,7.58
2022-12-18T22:19:14.890Z,7.62
2022-12-18T22:21:45.811Z,7.62
2022-12-18T22:24:21.669Z,7.65
2022-12-18T22:26:49.882Z,7.68
2022-12-18T22:29:40.420Z,7.71
2022-12-18T22:32:09.209Z,7.76
2022-12-18T22:34:38.680Z,7.82
2022-12-18T22:37:05.486Z,7.85
2022-12-18T22:39:32.696Z,7.87
2022-12-18T22:41:59.420Z,7.89
2022-12-18T22:44:26.363Z,7.91
2022-12-18T22:47:05.492Z,7.91
2022-12-18T22:49:35.379Z,7.92
2022-12-18T22:52:03.958Z,7.91
2022-12-18T22:54:30.715Z,7.93
2022-12-18T22:56:57.651Z,7.96
2022-12-18T22:59:24.632Z,8.00
2022-12-18T23:01:54.257Z,8.03
2022-12-18T23:04:28.780Z,8.05
2022-12-18T23:07:00.906Z,8.07
2022-12-18T23:09:27.486Z,8.09
2022-12-18T23:11:54.491Z,8.10
2022-12-18T23:14:21.108Z,8.13
2022-12-18T23:16:47.813Z,8.20
2022-12-18T23:19:16.509Z,8.24
2022-12-18T23:21:43.112Z,8.28
2022-12-18T23:24:10.398Z,8.30
2022-12-18T23:26:37.128Z,8.32
2022-12-18T23:29:04.255Z,8.35
2022-12-18T23:31:33.985Z,8.38
2022-12-18T23:34:02.113Z,8.42
2022-12-18T23:36:30.478Z,8.44
2022-12-18T23:39:01.606Z,8.47
2022-12-18T23:41:31.316Z,8.46
2022-12-18T23:43:59.647Z,8.49
2022-12-18T23:46:36.071Z,8.52
2022-12-18T23:49:04.270Z,8.54
2022-12-18T23:51:33.238Z,8.56
2022-12-18T23:54:01.725Z,8.58
2022-12-18T23:56:29.467Z,8.63
2022-12-18T23:58:56.474Z,8.65
